Time;durP1;ratioP1;P1;durP2;ratioP2;P2;SDS_P1;SDS_P2;PMS_P1;PMS_P2;Temp;Humidity;BMP_temperature;BMP_pressure;BME280_temperature;BME280_humidity;BME280_pressure;Samples;Min_cycle;Max_cycle;Signal;HPM_P1;HPM_P2
2023/03/26 00:01:06;;;;;;;19.38;3.92;;;7.60;99.90;;;;;;5005989;28;20482;-75
2023/03/26 00:03:34;;;;;;;16.85;4.07;;;7.60;99.90;;;;;;4987323;28;20513;-74
2023/03/26 00:06:08;;;;;;;17.50;4.03;;;7.60;99.90;;;;;;5003052;28;20038;-75
2023/03/26 00:08:35;;;;;;;15.75;3.28;;;7.70;99.90;;;;;;5028056;28;20076;-76
2023/03/26 00:11:02;;;;;;;18.33;3.80;;;7.60;99.90;;;;;;4988451;28;20065;-75
2023/03/26 00:13:28;;;;;;;20.88;3.88;;;7.70;99.90;;;;;;5004012;28;20029;-75
2023/03/26 00:15:54;;;;;;;13.57;3.45;;;7.60;99.90;;;;;;5005805;28;20042;-74
2023/03/26 00:18:21;;;;;;;16.38;3.88;;;7.70;99.90;;;;;;5007089;28;20026;-77
2023/03/26 00:20:47;;;;;;;18.27;3.42;;;7.70;99.90;;;;;;5005721;28;20116;-75
2023/03/26 00:23:13;;;;;;;20.05;2.97;;;7.70;99.90;;;;;;5004185;28;20566;-75
2023/03/26 00:25:40;;;;;;;15.15;3.13;;;7.70;99.90;;;;;;5005722;28;20041;-74
2023/03/26 00:28:07;;;;;;;16.13;3.35;;;7.70;99.90;;;;;;5004611;28;20037;-75
2023/03/26 00:30:34;;;;;;;16.50;3.38;;;7.60;99.90;;;;;;5007819;28;20441;-75
2023/03/26 00:33:00;;;;;;;14.60;3.80;;;7.60;99.90;;;;;;5012360;28;20041;-75
2023/03/26 00:35:28;;;;;;;15.80;3.55;;;7.60;99.90;;;;;;5003837;28;20045;-74
2023/03/26 00:37:54;;;;;;;15.98;3.65;;;7.60;99.90;;;;;;5006662;28;20034;-76
2023/03/26 00:40:20;;;;;;;19.85;3.28;;;7.60;99.90;;;;;;5004592;28;20038;-76
2023/03/26 00:42:46;;;;;;;20.25;3.70;;;7.60;99.90;;;;;;5004537;28;20356;-76
2023/03/26 00:45:12;;;;;;;11.15;3.00;;;7.60;99.90;;;;;;5005247;28;20133;-75
2023/03/26 00:47:39;;;;;;;13.27;3.13;;;7.50;99.90;;;;;;5003527;28;20060;-75
2023/03/26 00:50:06;;;;;;;21.67;3.60;;;7.50;99.90;;;;;;5006301;28;20034;-75
2023/03/26 00:52:32;;;;;;;14.60;3.35;;;7.50;99.90;;;;;;5005938;28;20022;-75
2023/03/26 00:54:57;;;;;;;23.52;4.10;;;7.50;99.90;;;;;;5006795;28;20466;-75
2023/03/26 00:57:29;;;;;;;16.50;3.17;;;7.50;99.90;;;;;;5003462;28;20105;-76
2023/03/26 00:59:55;;;;;;;11.98;3.33;;;7.50;99.90;;;;;;5005819;28;20037;-76
2023/03/26 01:02:21;;;;;;;17.67;3.13;;;7.60;99.90;;;;;;5004488;28;20029;-75
2023/03/26 01:04:54;;;;;;;11.02;3.28;;;7.50;99.90;;;;;;5007959;28;20026;-75
2023/03/26 01:07:27;;;;;;;12.45;2.88;;;7.50;99.90;;;;;;5006807;28;20494;-76
2023/03/26 01:09:58;;;;;;;15.13;3.13;;;7.50;99.90;;;;;;5003618;28;20095;-77
2023/03/26 01:12:27;;;;;;;20.13;3.22;;;7.50;99.90;;;;;;5003246;28;20026;-75
2023/03/26 01:14:59;;;;;;;10.40;2.85;;;7.50;99.90;;;;;;5004682;28;20030;-76
2023/03/26 01:17:32;;;;;;;17.48;3.35;;;7.50;99.90;;;;;;5004225;28;20018;-76
2023/03/26 01:20:25;;;;;;;12.30;2.53;;;7.40;99.90;;;;;;5003853;28;20114;-77
2023/03/26 01:22:58;;;;;;;10.02;2.03;;;7.40;99.90;;;;;;5006210;28;20030;-74
2023/03/26 01:25:36;;;;;;;7.28;2.05;;;7.40;99.90;;;;;;4987940;28;20689;-75
2023/03/26 01:28:07;;;;;;;7.70;1.83;;;7.40;99.90;;;;;;5010471;28;20069;-75
2023/03/26 01:30:41;;;;;;;7.13;2.03;;;7.30;99.90;;;;;;5009349;28;20029;-75
2023/03/26 01:33:28;;;;;;;7.57;2.50;;;7.20;99.90;;;;;;5043459;28;20033;-77
2023/03/26 01:36:13;;;;;;;12.18;2.10;;;7.20;99.90;;;;;;5008901;28;20117;-75
2023/03/26 01:38:50;;;;;;;9.52;2.42;;;7.20;99.90;;;;;;5001666;28;20099;-75
2023/03/26 01:41:47;;;;;;;12.48;2.25;;;7.20;99.90;;;;;;5008222;28;20029;-76
2023/03/26 01:44:45;;;;;;;16.35;2.55;;;7.20;99.90;;;;;;5009443;28;20170;-76
2023/03/26 01:47:12;;;;;;;11.65;2.65;;;7.20;99.90;;;;;;5008049;28;20045;-76
2023/03/26 01:49:38;;;;;;;13.07;2.85;;;7.20;99.90;;;;;;5006947;28;20910;-76
2023/03/26 01:52:21;;;;;;;13.07;2.65;;;7.20;99.90;;;;;;5006181;28;20041;-75
2023/03/26 01:54:47;;;;;;;18.67;3.25;;;7.20;99.90;;;;;;5011778;28;20038;-76
2023/03/26 01:57:21;;;;;;;19.58;2.78;;;7.20;99.90;;;;;;5010127;28;20316;-76
2023/03/26 02:00:10;;;;;;;18.27;3.40;;;7.10;99.90;;;;;;5007781;28;20469;-76
2023/03/26 02:02:44;;;;;;;12.00;2.25;;;7.10;99.90;;;;;;5021032;28;20027;-76
2023/03/26 02:05:36;;;;;;;12.63;2.45;;;7.20;99.90;;;;;;5008962;28;20470;-76
2023/03/26 02:08:34;;;;;;;11.95;2.30;;;7.10;99.90;;;;;;5006629;28;20046;-76
2023/03/26 02:11:04;;;;;;;22.13;3.45;;;7.10;99.90;;;;;;5009603;28;20030;-76
2023/03/26 02:13:31;;;;;;;24.17;3.13;;;7.10;99.90;;;;;;5011124;28;20559;-76
2023/03/26 02:16:00;;;;;;;13.52;2.10;;;7.10;99.90;;;;;;5008292;28;20343;-75
2023/03/26 02:18:35;;;;;;;18.65;3.22;;;7.10;99.90;;;;;;5011386;28;20109;-75
2023/03/26 02:21:02;;;;;;;13.88;2.60;;;7.10;99.90;;;;;;5004205;28;20479;-75
2023/03/26 02:23:28;;;;;;;16.73;2.72;;;7.00;99.90;;;;;;5042861;28;20037;-76
2023/03/26 02:25:54;;;;;;;11.95;2.40;;;7.10;99.90;;;;;;5009805;28;20079;-75
2023/03/26 02:28:20;;;;;;;16.85;2.63;;;7.10;99.90;;;;;;4995206;28;20022;-75
2023/03/26 02:30:46;;;;;;;12.55;2.38;;;7.10;99.90;;;;;;5006228;28;20037;-75
2023/03/26 02:33:14;;;;;;;12.35;2.50;;;7.10;99.90;;;;;;4991968;28;20069;-76
2023/03/26 02:35:44;;;;;;;24.13;2.80;;;7.10;99.90;;;;;;5006481;28;20030;-76
2023/03/26 02:38:13;;;;;;;14.90;2.70;;;7.10;99.90;;;;;;4989747;28;20038;-75
2023/03/26 02:40:40;;;;;;;13.82;2.75;;;7.10;99.90;;;;;;5009807;28;20315;-76
2023/03/26 02:43:06;;;;;;;17.73;2.55;;;7.10;99.90;;;;;;5008748;28;20363;-76
2023/03/26 02:45:31;;;;;;;9.52;2.10;;;7.10;99.90;;;;;;4989423;28;20033;-76
2023/03/26 02:47:59;;;;;;;10.93;2.13;;;7.10;99.90;;;;;;5006820;28;20080;-74
2023/03/26 02:50:25;;;;;;;11.57;1.83;;;7.10;99.90;;;;;;5007166;28;20105;-76
2023/03/26 02:52:52;;;;;;;6.75;1.27;;;7.00;99.90;;;;;;5008442;28;20571;-75
2023/03/26 02:55:18;;;;;;;6.63;1.58;;;7.00;99.90;;;;;;5006099;28;20030;-75
2023/03/26 02:57:44;;;;;;;13.70;2.80;;;6.90;99.90;;;;;;5010420;28;20375;-75
2023/03/26 03:00:16;;;;;;;9.20;1.88;;;6.80;99.90;;;;;;5006488;28;20030;-75
2023/03/26 03:02:43;;;;;;;9.02;1.80;;;6.80;99.90;;;;;;5005130;28;20506;-76
2023/03/26 03:05:09;;;;;;;8.80;1.73;;;6.70;99.90;;;;;;5004950;28;20064;-76
2023/03/26 03:07:37;;;;;;;8.55;1.30;;;6.70;99.90;;;;;;5008779;28;20045;-76
2023/03/26 03:10:07;;;;;;;6.65;1.40;;;6.70;99.90;;;;;;5006539;28;20029;-75
2023/03/26 03:12:33;;;;;;;7.57;1.70;;;6.70;99.90;;;;;;5005271;28;20032;-76
2023/03/26 03:14:59;;;;;;;10.98;1.80;;;6.70;99.90;;;;;;5011227;28;20060;-76
2023/03/26 03:17:25;;;;;;;6.65;1.60;;;6.60;99.90;;;;;;5027412;28;20062;-76
2023/03/26 03:19:51;;;;;;;13.75;1.95;;;6.60;99.90;;;;;;5004360;28;20014;-76
2023/03/26 03:22:18;;;;;;;12.18;1.77;;;6.60;99.90;;;;;;5041632;28;20030;-75
2023/03/26 03:24:45;;;;;;;14.70;1.40;;;6.60;99.90;;;;;;5001235;28;20029;-75
2023/03/26 03:27:11;;;;;;;11.70;1.77;;;6.60;99.90;;;;;;5008062;28;20068;-75
2023/03/26 03:29:37;;;;;;;8.18;1.98;;;6.60;99.90;;;;;;5023270;28;20040;-75
2023/03/26 03:32:03;;;;;;;9.82;1.88;;;6.60;99.90;;;;;;5006274;28;20045;-75
2023/03/26 03:34:29;;;;;;;12.05;1.60;;;6.60;99.90;;;;;;5005849;28;20041;-74
2023/03/26 03:36:54;;;;;;;10.35;2.17;;;6.50;99.90;;;;;;5008725;28;20038;-75
2023/03/26 03:39:20;;;;;;;10.80;1.70;;;6.60;99.90;;;;;;5006949;28;20030;-74
2023/03/26 03:41:46;;;;;;;8.77;1.65;;;6.60;99.90;;;;;;5024355;28;20081;-75
2023/03/26 03:44:11;;;;;;;13.32;1.88;;;6.60;99.90;;;;;;5006078;28;20018;-75
2023/03/26 03:46:37;;;;;;;8.65;1.77;;;6.50;99.90;;;;;;5001669;28;20440;-75
2023/03/26 03:49:03;;;;;;;11.93;1.67;;;6.60;99.90;;;;;;5009000;28;20026;-75
2023/03/26 03:51:28;;;;;;;11.68;1.88;;;6.60;99.90;;;;;;5006807;28;20041;-75
2023/03/26 03:53:54;;;;;;;14.70;1.98;;;6.60;99.90;;;;;;5006021;28;20073;-74
2023/03/26 03:56:22;;;;;;;19.27;2.00;;;6.60;99.90;;;;;;5037422;28;20402;-75
2023/03/26 03:58:49;;;;;;;10.75;2.38;;;6.60;99.90;;;;;;5005545;28;20148;-75
2023/03/26 04:01:16;;;;;;;10.60;1.75;;;6.60;99.90;;;;;;5004172;28;20060;-75
2023/03/26 04:03:44;;;;;;;8.80;2.08;;;6.60;99.90;;;;;;5020933;28;20030;-77
2023/03/26 04:06:11;;;;;;;13.20;2.15;;;6.50;99.90;;;;;;4987973;28;20036;-76
2023/03/26 04:08:38;;;;;;;10.10;2.63;;;6.50;99.90;;;;;;5007196;28;20045;-74
2023/03/26 04:11:04;;;;;;;18.88;2.10;;;6.60;99.90;;;;;;5004216;28;20101;-75
2023/03/26 04:13:30;;;;;;;14.27;2.45;;;6.60;99.90;;;;;;5007693;28;20038;-75
2023/03/26 04:15:56;;;;;;;10.13;2.03;;;6.60;99.90;;;;;;5004200;28;20120;-75
2023/03/26 04:18:22;;;;;;;11.90;1.90;;;6.50;99.90;;;;;;5021395;28;20165;-75
2023/03/26 04:20:48;;;;;;;13.00;2.63;;;6.50;99.90;;;;;;5006009;28;20022;-75
2023/03/26 04:23:16;;;;;;;14.25;2.50;;;6.50;99.90;;;;;;5020441;28;20640;-76
2023/03/26 04:25:49;;;;;;;17.13;2.35;;;6.50;99.90;;;;;;5004402;28;20030;-76
2023/03/26 04:28:27;;;;;;;7.38;1.95;;;6.40;99.90;;;;;;5022470;28;20034;-75
2023/03/26 04:30:55;;;;;;;10.75;2.15;;;6.40;99.90;;;;;;5006937;28;20100;-76
2023/03/26 04:33:23;;;;;;;11.10;1.92;;;6.30;99.90;;;;;;5007264;28;20111;-76
2023/03/26 04:35:50;;;;;;;14.50;2.25;;;6.30;99.90;;;;;;5004734;28;20164;-76
2023/03/26 04:38:17;;;;;;;13.55;2.90;;;6.20;99.90;;;;;;5008091;28;20045;-76
2023/03/26 04:40:46;;;;;;;10.52;1.85;;;6.20;99.90;;;;;;5006320;28;20040;-76
2023/03/26 04:43:13;;;;;;;13.00;2.20;;;6.20;99.90;;;;;;5011331;28;20645;-76
2023/03/26 04:45:39;;;;;;;19.48;2.63;;;6.20;99.90;;;;;;5002770;28;20066;-76
2023/03/26 04:48:07;;;;;;;9.30;1.77;;;6.30;99.90;;;;;;5009130;28;20057;-75
2023/03/26 04:50:33;;;;;;;15.55;2.10;;;6.20;99.90;;;;;;5010993;28;20394;-76
2023/03/26 04:52:59;;;;;;;13.25;1.73;;;6.20;99.90;;;;;;5009755;28;20041;-74
2023/03/26 04:55:37;;;;;;;12.77;1.80;;;6.30;99.90;;;;;;5011894;28;20546;-75
2023/03/26 04:58:04;;;;;;;8.52;1.83;;;6.20;99.90;;;;;;5011092;28;20037;-75
2023/03/26 05:00:31;;;;;;;12.40;1.85;;;6.20;99.90;;;;;;5013869;28;20041;-74
2023/03/26 05:03:00;;;;;;;7.20;1.13;;;6.10;99.90;;;;;;5010695;28;20057;-75
2023/03/26 05:05:27;;;;;;;9.60;1.92;;;6.10;99.90;;;;;;5004191;28;20099;-74
2023/03/26 05:07:53;;;;;;;10.30;1.90;;;6.00;99.90;;;;;;5007447;28;20064;-75
2023/03/26 05:10:20;;;;;;;6.32;1.60;;;6.00;99.90;;;;;;5010879;28;20077;-75
2023/03/26 05:12:46;;;;;;;7.40;1.30;;;6.00;99.90;;;;;;5026775;28;20030;-75
2023/03/26 05:15:13;;;;;;;6.22;1.08;;;6.00;99.90;;;;;;5012012;28;20493;-75
2023/03/26 05:17:41;;;;;;;6.63;1.50;;;6.00;99.90;;;;;;5009812;28;20045;-75
2023/03/26 05:20:20;;;;;;;4.78;1.63;;;5.90;99.90;;;;;;5012407;28;20064;-74
2023/03/26 05:22:47;;;;;;;6.97;1.67;;;5.90;99.90;;;;;;5042351;28;20478;-75
2023/03/26 05:25:13;;;;;;;11.13;1.98;;;6.00;99.90;;;;;;5011833;28;20025;-74
2023/03/26 05:27:39;;;;;;;7.35;1.23;;;6.00;99.90;;;;;;4992014;28;20045;-75
2023/03/26 05:30:07;;;;;;;12.75;1.75;;;5.90;99.90;;;;;;5009892;28;20038;-75
2023/03/26 05:32:33;;;;;;;9.25;1.67;;;5.90;99.90;;;;;;5017679;28;20054;-74
2023/03/26 05:34:59;;;;;;;8.85;1.45;;;6.00;99.90;;;;;;5011788;28;20033;-75
2023/03/26 05:37:29;;;;;;;7.55;1.60;;;6.10;99.90;;;;;;5009639;28;20025;-75
2023/03/26 05:39:55;;;;;;;11.45;1.80;;;6.20;99.90;;;;;;5009478;28;20026;-75
2023/03/26 05:42:22;;;;;;;6.82;1.58;;;6.00;99.90;;;;;;5011167;28;20505;-74
2023/03/26 05:44:47;;;;;;;10.30;1.77;;;6.00;99.90;;;;;;4991405;28;20081;-75
2023/03/26 05:47:13;;;;;;;6.95;1.25;;;6.00;99.90;;;;;;5009268;28;20057;-74
2023/03/26 05:49:39;;;;;;;8.20;1.83;;;5.90;99.90;;;;;;5009715;28;20034;-74
2023/03/26 05:52:05;;;;;;;9.55;1.95;;;5.90;99.90;;;;;;5011098;28;20494;-74
2023/03/26 05:54:31;;;;;;;9.85;1.73;;;5.90;99.90;;;;;;5004566;28;20517;-74
2023/03/26 05:56:56;;;;;;;11.40;3.15;;;6.00;99.90;;;;;;5007873;28;20451;-74
2023/03/26 05:59:22;;;;;;;7.85;1.73;;;5.90;99.90;;;;;;5008173;28;20330;-75
2023/03/26 06:01:49;;;;;;;7.93;1.40;;;6.00;99.90;;;;;;5007679;28;20022;-74
2023/03/26 06:04:16;;;;;;;7.50;1.67;;;7.40;99.90;;;;;;5007494;28;20080;-75
2023/03/26 06:06:43;;;;;;;9.82;1.63;;;9.60;99.90;;;;;;5006595;28;20029;-75
2023/03/26 06:09:12;;;;;;;10.65;1.60;;;10.10;99.90;;;;;;5007288;28;20116;-74
2023/03/26 06:11:38;;;;;;;11.93;1.73;;;8.30;99.90;;;;;;5007859;28;20037;-74
2023/03/26 06:14:05;;;;;;;8.32;2.10;;;7.50;99.90;;;;;;5008008;28;20037;-74
2023/03/26 06:16:31;;;;;;;12.85;2.25;;;7.20;99.90;;;;;;5006655;28;20026;-76
2023/03/26 06:18:57;;;;;;;16.65;2.45;;;6.90;99.90;;;;;;4990065;28;20577;-74
2023/03/26 06:21:25;;;;;;;14.23;2.22;;;6.70;99.90;;;;;;5008333;28;20050;-76
2023/03/26 06:23:52;;;;;;;13.98;2.13;;;6.70;99.90;;;;;;5007044;28;20018;-74
2023/03/26 06:26:18;;;;;;;14.25;1.80;;;6.60;99.90;;;;;;5004929;28;20030;-76
2023/03/26 06:28:44;;;;;;;8.15;1.40;;;6.50;99.90;;;;;;5006398;28;20780;-76
2023/03/26 06:31:10;;;;;;;13.88;2.28;;;6.50;99.90;;;;;;4990687;28;20049;-77
2023/03/26 06:33:36;;;;;;;11.70;1.95;;;6.40;99.90;;;;;;5006699;28;20568;-77
2023/03/26 06:36:02;;;;;;;15.82;2.10;;;6.50;99.90;;;;;;5010178;28;20522;-76
2023/03/26 06:38:28;;;;;;;14.80;2.03;;;6.40;99.90;;;;;;5011922;28;20049;-76
2023/03/26 06:40:54;;;;;;;14.45;3.30;;;6.50;99.90;;;;;;5006619;28;20541;-74
2023/03/26 06:43:19;;;;;;;10.07;2.03;;;6.90;99.90;;;;;;5052882;28;20036;-76
2023/03/26 06:45:49;;;;;;;13.60;2.17;;;6.70;99.90;;;;;;5046329;28;20082;-76
2023/03/26 06:48:15;;;;;;;11.90;2.43;;;6.60;99.90;;;;;;5003591;28;20058;-74
2023/03/26 06:50:41;;;;;;;15.02;3.17;;;6.50;99.90;;;;;;5005191;28;20076;-76
2023/03/26 06:53:09;;;;;;;13.90;2.10;;;6.50;99.90;;;;;;5005950;28;20057;-75
2023/03/26 06:55:34;;;;;;;9.55;1.75;;;6.50;99.90;;;;;;5008573;28;20030;-76
2023/03/26 06:58:00;;;;;;;10.23;2.30;;;6.40;99.90;;;;;;5007052;28;20505;-76
2023/03/26 07:00:26;;;;;;;16.52;2.53;;;6.40;99.90;;;;;;5004526;28;20406;-76
2023/03/26 07:02:52;;;;;;;14.27;2.58;;;6.50;99.90;;;;;;5007564;28;20032;-75
2023/03/26 07:05:17;;;;;;;19.88;2.05;;;6.50;99.90;;;;;;5006040;28;20459;-74
2023/03/26 07:07:43;;;;;;;9.48;2.08;;;6.50;99.90;;;;;;5006349;28;20075;-74
2023/03/26 07:10:09;;;;;;;14.93;2.00;;;6.50;99.90;;;;;;5004085;28;20037;-76
2023/03/26 07:12:37;;;;;;;9.25;2.20;;;6.50;99.90;;;;;;5015451;28;20025;-75
2023/03/26 07:15:04;;;;;;;10.52;2.10;;;6.50;99.90;;;;;;5004935;28;20516;-76
2023/03/26 07:17:29;;;;;;;13.68;2.00;;;6.60;99.90;;;;;;5000327;28;20029;-76
2023/03/26 07:19:57;;;;;;;13.00;2.45;;;6.60;99.90;;;;;;5004069;28;20461;-76
2023/03/26 07:22:24;;;;;;;12.10;2.08;;;6.60;99.90;;;;;;5004104;28;20065;-76
2023/03/26 07:24:50;;;;;;;8.77;1.75;;;6.50;99.90;;;;;;5004362;28;20056;-76
2023/03/26 07:27:50;;;;;;;11.52;1.98;;;6.50;99.90;;;;;;5004408;28;20021;-76
2023/03/26 07:30:44;;;;;;;10.20;1.92;;;6.50;99.90;;;;;;5006363;28;20037;-75
2023/03/26 07:33:45;;;;;;;15.00;2.60;;;6.50;99.90;;;;;;5006184;28;20085;-75
2023/03/26 07:36:20;;;;;;;8.05;2.33;;;6.50;99.90;;;;;;5002628;28;20046;-75
2023/03/26 07:39:08;;;;;;;14.27;2.40;;;6.50;99.90;;;;;;5005097;28;20038;-75
2023/03/26 07:41:42;;;;;;;16.20;2.47;;;6.50;99.90;;;;;;4999773;28;20036;-75
2023/03/26 07:44:27;;;;;;;13.38;2.10;;;6.50;99.90;;;;;;5023192;28;20034;-75
2023/03/26 07:46:53;;;;;;;14.18;2.20;;;6.50;99.90;;;;;;4999321;28;20730;-75
2023/03/26 07:49:19;;;;;;;14.23;2.47;;;6.50;99.90;;;;;;5002612;28;20125;-76
2023/03/26 07:51:46;;;;;;;13.18;2.50;;;6.50;99.90;;;;;;5026812;28;20112;-75
2023/03/26 07:54:15;;;;;;;14.45;2.60;;;6.60;99.90;;;;;;5002380;28;20557;-75
2023/03/26 07:56:51;;;;;;;18.40;2.67;;;6.70;99.90;;;;;;5007746;28;20042;-75
2023/03/26 07:59:39;;;;;;;16.45;2.70;;;6.70;99.90;;;;;;5032244;28;20034;-75
2023/03/26 08:02:26;;;;;;;19.42;3.03;;;6.70;99.90;;;;;;5007355;28;20030;-76
2023/03/26 08:05:17;;;;;;;16.30;2.80;;;6.80;99.90;;;;;;4999971;28;20494;-75
2023/03/26 08:07:55;;;;;;;16.38;2.15;;;6.90;99.90;;;;;;5003304;28;20061;-75
2023/03/26 08:10:40;;;;;;;19.80;3.22;;;6.80;99.90;;;;;;5024293;28;20044;-75
2023/03/26 08:13:48;;;;;;;20.08;2.70;;;6.70;99.90;;;;;;5022911;28;20080;-76
2023/03/26 08:16:25;;;;;;;22.52;2.78;;;6.70;99.90;;;;;;4992708;28;20045;-76
2023/03/26 08:19:12;;;;;;;15.63;2.30;;;6.70;99.90;;;;;;5008339;28;20496;-76
2023/03/26 08:21:49;;;;;;;19.77;3.10;;;6.80;99.90;;;;;;5005220;28;20521;-75
2023/03/26 08:24:21;;;;;;;14.48;2.58;;;6.90;99.90;;;;;;5022541;28;20041;-77
2023/03/26 08:27:28;;;;;;;14.45;2.95;;;6.80;99.90;;;;;;5003082;28;20025;-76
2023/03/26 08:30:00;;;;;;;16.40;3.40;;;6.80;99.90;;;;;;5020194;28;20034;-77
2023/03/26 08:32:26;;;;;;;21.25;2.92;;;6.80;99.90;;;;;;5008642;28;20045;-77
2023/03/26 08:34:52;;;;;;;16.27;2.95;;;6.80;99.90;;;;;;5005297;28;20049;-77
2023/03/26 08:37:18;;;;;;;18.35;2.90;;;6.80;99.90;;;;;;5005856;28;20037;-77
2023/03/26 08:39:44;;;;;;;18.45;3.17;;;6.80;99.90;;;;;;5004744;28;20030;-77
2023/03/26 08:42:23;;;;;;;19.63;3.38;;;6.80;99.90;;;;;;5009618;28;20062;-78
2023/03/26 08:45:27;;;;;;;19.48;2.78;;;6.90;99.90;;;;;;5020307;28;20042;-77
2023/03/26 08:48:30;;;;;;;21.42;2.70;;;6.80;99.90;;;;;;5007758;28;20056;-77
2023/03/26 08:51:14;;;;;;;24.40;2.83;;;6.90;99.90;;;;;;5002827;28;20711;-77
2023/03/26 08:54:23;;;;;;;17.83;3.15;;;7.00;99.90;;;;;;5005588;28;20037;-76
2023/03/26 08:57:17;;;;;;;17.95;3.15;;;7.10;99.90;;;;;;5006477;28;20026;-75
2023/03/26 08:59:49;;;;;;;14.07;2.38;;;6.90;99.90;;;;;;5009704;28;20044;-74
2023/03/26 09:02:20;;;;;;;22.90;3.13;;;7.00;99.90;;;;;;5005685;28;20200;-74
2023/03/26 09:05:05;;;;;;;19.73;3.00;;;6.90;99.90;;;;;;5008321;28;20029;-76
2023/03/26 09:07:42;;;;;;;15.65;3.05;;;6.80;99.90;;;;;;5023152;28;20116;-75
2023/03/26 09:10:41;;;;;;;22.35;2.97;;;6.90;99.90;;;;;;5025026;28;20017;-77
2023/03/26 09:13:17;;;;;;;19.17;2.97;;;6.90;99.90;;;;;;4995807;28;20038;-76
2023/03/26 09:16:10;;;;;;;19.17;2.83;;;7.10;99.90;;;;;;5008710;28;20044;-76
2023/03/26 09:18:36;;;;;;;17.95;3.05;;;7.30;99.90;;;;;;5006089;28;20018;-75
2023/03/26 09:21:30;;;;;;;17.67;3.90;;;7.40;99.90;;;;;;5007246;28;20502;-76
2023/03/26 09:24:04;;;;;;;16.83;2.50;;;7.50;99.90;;;;;;5006118;28;20037;-77
2023/03/26 09:26:58;;;;;;;22.10;3.03;;;7.50;99.90;;;;;;5009731;28;21296;-77
2023/03/26 09:29:42;;;;;;;17.58;3.92;;;7.50;99.90;;;;;;5031260;28;20123;-77
2023/03/26 09:32:15;;;;;;;19.25;2.40;;;7.60;99.90;;;;;;5009128;28;20080;-78
2023/03/26 09:35:19;;;;;;;12.35;2.83;;;7.50;99.90;;;;;;5009231;28;20061;-78
2023/03/26 09:37:57;;;;;;;22.48;3.45;;;7.60;99.90;;;;;;4999172;28;20068;-78
2023/03/26 09:41:05;;;;;;;16.02;3.45;;;7.70;99.90;;;;;;5040911;28;20087;-78
2023/03/26 09:43:53;;;;;;;16.42;2.85;;;7.70;99.90;;;;;;5022074;28;20030;-78
2023/03/26 09:46:34;;;;;;;15.70;2.72;;;7.60;99.90;;;;;;5020874;28;20038;-78
2023/03/26 09:49:38;;;;;;;19.25;2.90;;;7.50;99.90;;;;;;4996228;28;20026;-76
2023/03/26 09:52:40;;;;;;;14.98;2.58;;;7.40;99.90;;;;;;5005561;28;20128;-77
2023/03/26 09:55:19;;;;;;;14.50;2.60;;;7.30;99.90;;;;;;5007570;28;20033;-74
2023/03/26 09:58:10;;;;;;;16.83;2.75;;;7.60;99.90;;;;;;5007564;28;20034;-75
2023/03/26 10:01:19;;;;;;;14.75;2.25;;;7.90;99.90;;;;;;5010508;28;20041;-73
2023/03/26 10:03:55;;;;;;;12.55;2.50;;;8.00;99.90;;;;;;4999596;28;20038;-74
2023/03/26 10:06:43;;;;;;;17.75;3.03;;;7.80;99.90;;;;;;5030356;28;20080;-78
2023/03/26 10:09:36;;;;;;;16.55;2.67;;;7.70;99.90;;;;;;5022322;28;20022;-72
2023/03/26 10:12:14;;;;;;;13.50;2.95;;;7.60;99.90;;;;;;5008028;28;20399;-74
2023/03/26 10:15:10;;;;;;;12.23;2.15;;;7.80;99.90;;;;;;5026994;28;20030;-71
2023/03/26 10:17:57;;;;;;;16.08;2.42;;;8.00;99.90;;;;;;5007175;28;20030;-71
2023/03/26 10:20:32;;;;;;;16.00;2.78;;;8.30;99.90;;;;;;5001880;28;20429;-75
2023/03/26 10:23:21;;;;;;;17.15;2.72;;;8.50;99.90;;;;;;5004631;28;20034;-75
2023/03/26 10:26:16;;;;;;;17.38;2.92;;;8.50;99.90;;;;;;5002565;28;20478;-74
2023/03/26 10:29:07;;;;;;;16.75;2.70;;;8.40;99.90;;;;;;5029339;28;20120;-75
2023/03/26 10:31:39;;;;;;;16.40;2.63;;;8.30;99.90;;;;;;5009743;28;20490;-75
2023/03/26 10:34:20;;;;;;;13.80;2.33;;;8.20;99.90;;;;;;5008144;28;20045;-75
2023/03/26 10:37:11;;;;;;;12.38;2.25;;;8.30;99.90;;;;;;5008167;28;20387;-77
2023/03/26 10:40:04;;;;;;;14.35;2.95;;;8.60;99.90;;;;;;5008040;28;20030;-75
2023/03/26 10:42:54;;;;;;;15.23;2.95;;;8.60;99.90;;;;;;4999174;28;20040;-75
2023/03/26 10:45:46;;;;;;;19.67;2.90;;;8.80;99.90;;;;;;5002560;28;20033;-76
2023/03/26 10:48:42;;;;;;;9.27;2.85;;;8.70;99.90;;;;;;5005215;28;20041;-71
2023/03/26 10:51:27;;;;;;;11.68;2.97;;;8.60;99.90;;;;;;5008077;28;20041;-71
2023/03/26 10:54:30;;;;;;;7.93;2.22;;;8.40;99.10;;;;;;5006495;28;20041;-74
2023/03/26 10:56:56;;;;;;;13.68;2.05;;;8.30;99.90;;;;;;5007120;28;20022;-71
2023/03/26 10:59:26;;;;;;;17.52;2.67;;;8.20;99.90;;;;;;5008371;28;20030;-77
2023/03/26 11:02:10;;;;;;;16.50;3.13;;;8.10;99.90;;;;;;5009180;28;20116;-71
2023/03/26 11:04:53;;;;;;;17.35;2.47;;;8.10;99.90;;;;;;5003764;28;20033;-70
2023/03/26 11:07:29;;;;;;;17.92;2.60;;;8.40;99.90;;;;;;5004194;28;20072;-74
2023/03/26 11:10:16;;;;;;;15.70;3.25;;;9.10;99.90;;;;;;5027547;28;20101;-70
2023/03/26 11:13:15;;;;;;;15.98;3.38;;;10.20;95.80;;;;;;5002953;28;20042;-75
2023/03/26 11:15:49;;;;;;;12.55;2.25;;;11.90;92.40;;;;;;4972731;28;20037;-72
2023/03/26 11:18:27;;;;;;;14.63;2.90;;;12.50;82.90;;;;;;5006836;28;20091;-70
2023/03/26 11:21:15;;;;;;;14.57;2.65;;;13.00;76.10;;;;;;5005883;28;20152;-70
2023/03/26 11:23:53;;;;;;;12.13;3.22;;;13.90;72.10;;;;;;5007354;28;20033;-71
2023/03/26 11:26:54;;;;;;;13.43;3.00;;;14.90;67.40;;;;;;5005942;28;20022;-75
2023/03/26 11:29:38;;;;;;;14.93;2.85;;;15.90;70.60;;;;;;5003221;28;20627;-74
2023/03/26 11:32:15;;;;;;;18.50;3.22;;;16.30;63.20;;;;;;5006695;28;20105;-75
2023/03/26 11:34:49;;;;;;;12.25;2.88;;;15.20;71.20;;;;;;5007502;28;20045;-71
2023/03/26 11:37:29;;;;;;;9.07;2.38;;;14.10;64.40;;;;;;4988685;28;20053;-72
2023/03/26 11:39:59;;;;;;;15.10;3.30;;;13.90;67.50;;;;;;5007807;28;20030;-74
2023/03/26 11:42:24;;;;;;;11.02;2.22;;;14.00;71.20;;;;;;5007467;28;20101;-75
2023/03/26 11:45:01;;;;;;;9.27;2.40;;;13.40;68.60;;;;;;5006458;28;20152;-72
2023/03/26 11:47:37;;;;;;;14.57;3.00;;;13.10;66.50;;;;;;5008450;28;20104;-72
2023/03/26 11:50:07;;;;;;;17.35;3.25;;;12.40;69.10;;;;;;5009370;28;20031;-75
2023/03/26 11:52:32;;;;;;;12.10;3.00;;;12.10;68.20;;;;;;4993591;28;20554;-72
2023/03/26 11:54:58;;;;;;;15.90;2.80;;;11.80;75.20;;;;;;5013011;28;20115;-74
2023/03/26 11:57:32;;;;;;;15.23;3.47;;;11.40;77.50;;;;;;5010355;28;20034;-75
2023/03/26 12:00:06;;;;;;;13.10;2.92;;;11.40;75.70;;;;;;5005588;28;20104;-74
2023/03/26 12:02:40;;;;;;;11.70;2.63;;;11.30;79.80;;;;;;5006141;28;20021;-75
2023/03/26 12:05:21;;;;;;;14.32;3.05;;;11.10;76.30;;;;;;5007571;28;20026;-75
2023/03/26 12:07:59;;;;;;;12.32;3.67;;;10.90;75.70;;;;;;5008542;28;20032;-71
2023/03/26 12:10:30;;;;;;;16.85;2.83;;;10.80;78.50;;;;;;5005732;28;20022;-75
2023/03/26 12:13:01;;;;;;;13.07;2.85;;;10.70;77.50;;;;;;5004984;28;20037;-71
2023/03/26 12:15:29;;;;;;;16.48;2.92;;;10.80;86.80;;;;;;5005490;28;20116;-72
2023/03/26 12:17:57;;;;;;;15.93;2.95;;;11.00;78.10;;;;;;5006212;28;20037;-74
2023/03/26 12:20:26;;;;;;;12.13;2.83;;;11.30;76.50;;;;;;5006171;28;20041;-72
2023/03/26 12:22:58;;;;;;;10.90;2.70;;;11.30;75.70;;;;;;5004611;28;20026;-75
2023/03/26 12:25:43;;;;;;;14.23;2.63;;;11.60;75.10;;;;;;5005979;28;20033;-72
2023/03/26 12:28:12;;;;;;;12.68;2.80;;;11.80;75.10;;;;;;5006805;28;20129;-75
2023/03/26 12:30:40;;;;;;;13.50;3.30;;;11.80;76.50;;;;;;5003164;28;20820;-72
2023/03/26 12:33:16;;;;;;;9.85;2.67;;;12.00;74.10;;;;;;5006671;28;20032;-72
2023/03/26 12:35:43;;;;;;;15.27;3.00;;;12.20;73.90;;;;;;5005970;28;20033;-75
2023/03/26 12:38:34;;;;;;;12.65;2.75;;;12.80;71.30;;;;;;5005843;28;20363;-72
2023/03/26 12:41:08;;;;;;;9.88;2.53;;;12.70;70.20;;;;;;5007003;28;20041;-72
2023/03/26 12:43:44;;;;;;;12.48;3.17;;;12.40;75.50;;;;;;5007010;28;20034;-74
2023/03/26 12:46:34;;;;;;;15.10;3.58;;;11.80;72.00;;;;;;5006648;28;20030;-73
2023/03/26 12:49:05;;;;;;;14.97;2.27;;;11.00;76.80;;;;;;5005457;28;20072;-72
2023/03/26 12:51:45;;;;;;;11.13;2.15;;;10.60;73.30;;;;;;5005314;28;20029;-75
2023/03/26 12:54:34;;;;;;;19.02;3.38;;;10.30;75.80;;;;;;5032820;28;20103;-73
2023/03/26 12:57:19;;;;;;;15.30;2.75;;;10.10;78.30;;;;;;5005581;28;20038;-73
2023/03/26 12:59:45;;;;;;;18.85;3.03;;;10.10;80.00;;;;;;5006043;28;20033;-71
2023/03/26 13:02:20;;;;;;;21.23;3.03;;;10.00;80.80;;;;;;5006546;28;20034;-77
2023/03/26 13:05:13;;;;;;;12.07;2.38;;;9.90;81.80;;;;;;5006196;28;20415;-74
2023/03/26 13:08:05;;;;;;;10.00;2.85;;;9.80;83.10;;;;;;5004916;28;20077;-73
2023/03/26 13:10:47;;;;;;;11.55;2.00;;;9.70;84.30;;;;;;5008500;28;20045;-72
2023/03/26 13:13:37;;;;;;;12.70;2.80;;;9.80;87.00;;;;;;5001660;28;20053;-75
2023/03/26 13:16:18;;;;;;;16.27;2.65;;;9.70;88.80;;;;;;5005594;28;20856;-74
2023/03/26 13:18:55;;;;;;;8.77;2.72;;;9.80;86.90;;;;;;5006349;28;20397;-74
2023/03/26 13:21:36;;;;;;;13.80;2.88;;;9.70;91.80;;;;;;5004303;28;20034;-70
2023/03/26 13:24:28;;;;;;;17.92;3.25;;;9.80;91.10;;;;;;4997586;28;20063;-71